Crescent Valley, Nevada
Current Conditions -  °F | °C
As of 1:56 AM on Thursday 18 Dec 2014 (Local Time) from KEKO Reporting Station
Haze Haze  
Wind Chill: 22°   Ceiling: 200
Heat Index: 27°   Visibility: 6mi
Dew Point: 25°   Wind: 5mph
Humidity: 92%   Direction: 40°NE
Pressure: 30.07"   Gusts: NA
Location:  40.42°N, 116.58°W
Report Text: KEKO 180956Z AUTO 04004KT 6SM BR OVC002 M03/M04 A3007 RMK AO2 SLP210 T10281039
Loading
Personal Weather Stations






























Interactive Weather Map New forecast layout! Learn more

10-Day Weather Forecast

Advertisements
Track Severe Weather on mobile